createdAt,value
2023-04-22T00:01:24.613Z,36.50
2023-04-22T00:03:55.438Z,36.30
2023-04-22T00:06:24.275Z,36.00
2023-04-22T00:08:53.213Z,36.00
2023-04-22T00:11:23.297Z,36.00
2023-04-22T00:13:52.212Z,36.40
2023-04-22T00:16:21.581Z,36.10
2023-04-22T00:18:50.576Z,36.30
2023-04-22T00:21:19.325Z,35.50
2023-04-22T00:23:48.261Z,36.10
2023-04-22T00:26:16.988Z,36.20
2023-04-22T00:28:47.258Z,35.90
2023-04-22T00:31:15.980Z,35.90
2023-04-22T00:33:45.430Z,36.10
2023-04-22T00:36:14.111Z,36.10
2023-04-22T00:38:50.471Z,36.00
2023-04-22T00:41:20.182Z,35.90
2023-04-22T00:43:52.484Z,35.30
2023-04-22T00:46:21.998Z,35.30
2023-04-22T00:48:51.846Z,35.10
2023-04-22T00:51:20.521Z,35.20
2023-04-22T00:53:49.568Z,35.10
2023-04-22T00:56:19.025Z,35.40
2023-04-22T00:58:48.116Z,35.30
2023-04-22T01:01:18.771Z,35.40
2023-04-22T01:03:52.778Z,35.10
2023-04-22T01:06:23.376Z,35.10
2023-04-22T01:08:52.637Z,35.30
2023-04-22T01:11:21.706Z,35.30
2023-04-22T01:13:50.905Z,35.50
2023-04-22T01:16:21.460Z,36.30
2023-04-22T01:18:51.035Z,36.30
2023-04-22T01:21:20.300Z,36.20
2023-04-22T01:23:51.121Z,36.50
2023-04-22T01:26:19.881Z,36.40
2023-04-22T01:28:49.386Z,36.30
2023-04-22T01:31:18.451Z,36.20
2023-04-22T01:33:48.451Z,35.90
2023-04-22T01:36:17.891Z,36.30
2023-04-22T01:38:47.248Z,36.90
2023-04-22T01:41:17.886Z,36.80
2023-04-22T01:43:47.690Z,36.40
2023-04-22T01:46:18.696Z,36.10
2023-04-22T01:48:51.475Z,36.70
2023-04-22T01:51:21.463Z,36.70
2023-04-22T01:53:51.024Z,36.40
2023-04-22T01:56:21.474Z,37.00
2023-04-22T01:58:51.478Z,36.60
2023-04-22T02:01:20.312Z,37.20
2023-04-22T02:03:49.368Z,37.10
2023-04-22T02:06:18.151Z,36.80
2023-04-22T02:08:47.159Z,36.30
2023-04-22T02:11:16.850Z,37.00
2023-04-22T02:13:47.193Z,37.30
2023-04-22T02:16:16.056Z,37.20
2023-04-22T02:18:45.089Z,37.00
2023-04-22T02:21:13.762Z,36.90
2023-04-22T02:23:43.334Z,37.00
2023-04-22T02:26:12.046Z,37.30
2023-04-22T02:28:41.627Z,37.30
2023-04-22T02:31:11.890Z,37.10
2023-04-22T02:33:42.855Z,38.00
2023-04-22T02:36:12.191Z,37.20
2023-04-22T02:38:41.169Z,37.10
2023-04-22T02:41:09.803Z,37.00
2023-04-22T02:43:41.670Z,36.90
2023-04-22T02:46:16.126Z,37.00
2023-04-22T02:48:45.253Z,37.00
2023-04-22T02:51:13.988Z,37.10
2023-04-22T02:53:43.130Z,37.20
2023-04-22T02:56:12.253Z,37.10
2023-04-22T02:58:41.287Z,37.30
2023-04-22T03:01:10.131Z,37.30
2023-04-22T03:03:41.299Z,37.40
2023-04-22T03:06:13.098Z,37.20
2023-04-22T03:08:42.097Z,37.30
2023-04-22T03:11:10.836Z,37.40
2023-04-22T03:13:39.750Z,37.20
2023-04-22T03:16:09.405Z,37.30
2023-04-22T03:18:41.495Z,37.20
2023-04-22T03:21:12.551Z,37.20
2023-04-22T03:23:42.844Z,37.50
2023-04-22T03:26:12.101Z,37.60
2023-04-22T03:28:42.137Z,37.60
2023-04-22T03:31:10.993Z,37.50
2023-04-22T03:33:41.571Z,37.10
2023-04-22T03:36:21.425Z,37.10
2023-04-22T03:38:51.085Z,37.70
2023-04-22T03:41:20.299Z,37.60
2023-04-22T03:43:50.883Z,37.40
2023-04-22T03:46:20.057Z,37.50
2023-04-22T03:48:59.947Z,37.40
2023-04-22T03:51:31.434Z,37.60
2023-04-22T03:54:03.385Z,37.70
2023-04-22T03:56:35.401Z,37.70
2023-04-22T03:59:04.313Z,37.70
2023-04-22T04:01:34.551Z,37.60
2023-04-22T04:04:08.172Z,37.70
2023-04-22T04:06:43.143Z,37.70
2023-04-22T04:09:12.138Z,37.90
2023-04-22T04:11:40.866Z,38.00
2023-04-22T04:14:11.706Z,37.90
2023-04-22T04:16:51.401Z,37.90
2023-04-22T04:19:30.475Z,38.00
2023-04-22T04:21:59.218Z,38.00
2023-04-22T04:24:30.388Z,38.30
2023-04-22T04:27:06.482Z,38.30
2023-04-22T04:29:43.330Z,38.30
2023-04-22T04:32:18.321Z,38.30
2023-04-22T04:34:49.113Z,38.30
2023-04-22T04:37:19.610Z,38.40
2023-04-22T04:40:00.425Z,38.50
2023-04-22T04:42:39.116Z,38.60
2023-04-22T04:45:13.729Z,38.50
2023-04-22T04:47:42.381Z,38.70
2023-04-22T04:50:23.662Z,38.70
2023-04-22T04:52:53.018Z,38.80
2023-04-22T04:55:27.609Z,38.50
2023-04-22T04:57:57.592Z,38.10
2023-04-22T05:00:26.804Z,38.00
2023-04-22T05:02:56.010Z,37.70
2023-04-22T05:05:26.594Z,37.50
2023-04-22T05:07:55.445Z,37.90
2023-04-22T05:10:25.205Z,38.00
2023-04-22T05:12:54.613Z,37.50
2023-04-22T05:15:26.505Z,37.70
2023-04-22T05:17:55.829Z,37.60
2023-04-22T05:20:26.530Z,37.80
2023-04-22T05:22:55.618Z,37.70
2023-04-22T05:25:24.638Z,37.50
2023-04-22T05:28:02.174Z,37.60
2023-04-22T05:30:36.994Z,37.60
2023-04-22T05:33:05.792Z,37.40
2023-04-22T05:35:36.774Z,37.20
2023-04-22T05:38:05.607Z,36.60
2023-04-22T05:40:35.521Z,36.50
2023-04-22T05:43:06.441Z,36.50
2023-04-22T05:45:36.262Z,36.50
2023-04-22T05:48:07.765Z,36.10
2023-04-22T05:50:44.269Z,36.10
2023-04-22T05:53:12.978Z,35.40
2023-04-22T05:55:42.359Z,35.40
2023-04-22T05:58:11.713Z,35.20
2023-04-22T06:00:54.063Z,34.60
2023-04-22T06:03:48.199Z,34.60
2023-04-22T06:06:19.060Z,34.40
2023-04-22T06:08:49.228Z,34.30
2023-04-22T06:11:18.302Z,34.30
2023-04-22T06:13:47.044Z,33.80
2023-04-22T06:16:16.286Z,33.90
2023-04-22T06:18:45.043Z,34.10
2023-04-22T06:21:14.548Z,34.10
2023-04-22T06:23:45.131Z,33.40
2023-04-22T06:26:14.337Z,33.30
2023-04-22T06:28:43.103Z,33.30
2023-04-22T06:31:20.418Z,33.20
2023-04-22T06:33:49.947Z,32.90
2023-04-22T06:36:20.199Z,32.80
2023-04-22T06:38:56.557Z,32.70
2023-04-22T06:41:40.796Z,32.70
2023-04-22T06:44:25.409Z,32.50
2023-04-22T06:47:23.285Z,33.10
2023-04-22T06:50:08.789Z,32.00
2023-04-22T06:52:42.389Z,33.30
2023-04-22T06:55:13.674Z,33.30
2023-04-22T06:57:43.146Z,32.00
2023-04-22T07:00:13.627Z,32.90
2023-04-22T07:02:43.716Z,31.90
2023-04-22T07:05:12.960Z,32.20
2023-04-22T07:07:42.457Z,31.50
2023-04-22T07:10:18.822Z,33.30
2023-04-22T07:13:07.778Z,33.10
2023-04-22T07:15:36.558Z,32.60
2023-04-22T07:18:06.040Z,32.40
2023-04-22T07:20:34.715Z,32.00
2023-04-22T07:23:03.642Z,32.70
2023-04-22T07:25:33.738Z,32.70
2023-04-22T07:28:02.945Z,32.20
2023-04-22T07:30:31.733Z,32.50
2023-04-22T07:33:00.755Z,32.70
2023-04-22T07:35:29.919Z,32.00
2023-04-22T07:37:58.926Z,32.60
2023-04-22T07:40:27.646Z,31.80
2023-04-22T07:42:58.258Z,31.90
2023-04-22T07:45:27.035Z,31.90
2023-04-22T07:47:56.066Z,31.30
2023-04-22T07:50:24.995Z,30.70
2023-04-22T07:52:53.991Z,31.90
2023-04-22T07:55:22.648Z,31.20
2023-04-22T07:57:51.609Z,31.70
2023-04-22T08:00:21.896Z,30.20
2023-04-22T08:02:51.108Z,30.20
2023-04-22T08:05:20.097Z,30.00
2023-04-22T08:07:49.189Z,29.40
2023-04-22T08:10:18.057Z,29.50
2023-04-22T08:12:47.245Z,29.00
2023-04-22T08:15:16.098Z,29.30
2023-04-22T08:17:46.663Z,29.30
2023-04-22T08:20:16.446Z,28.90
2023-04-22T08:22:45.744Z,29.30
2023-04-22T08:25:14.541Z,28.30
2023-04-22T08:27:43.588Z,28.10
2023-04-22T08:30:13.013Z,27.90
2023-04-22T08:32:42.003Z,28.20
2023-04-22T08:35:12.287Z,28.40
2023-04-22T08:37:42.188Z,28.00
2023-04-22T08:40:11.685Z,28.30
2023-04-22T08:42:41.754Z,27.70
2023-04-22T08:45:12.081Z,27.30
2023-04-22T08:47:42.507Z,27.80
2023-04-22T08:50:13.200Z,28.00
2023-04-22T08:52:43.837Z,27.10
2023-04-22T08:55:12.519Z,26.70
2023-04-22T08:57:42.753Z,26.30
2023-04-22T09:00:13.410Z,26.60
2023-04-22T09:02:45.950Z,26.00
2023-04-22T09:05:17.080Z,26.00
2023-04-22T09:07:46.854Z,25.90
2023-04-22T09:10:16.071Z,26.20
2023-04-22T09:12:45.079Z,25.60
2023-04-22T09:15:14.063Z,26.00
2023-04-22T09:17:43.671Z,26.00
2023-04-22T09:20:14.604Z,25.80
2023-04-22T09:22:47.405Z,26.60
2023-04-22T09:25:25.358Z,26.20
2023-04-22T09:27:55.942Z,26.00
2023-04-22T09:30:27.062Z,25.90
2023-04-22T09:32:58.975Z,26.20
2023-04-22T09:35:31.112Z,25.30
2023-04-22T09:38:04.416Z,25.20
2023-04-22T09:40:34.310Z,25.30
2023-04-22T09:43:05.642Z,25.60
2023-04-22T09:45:36.926Z,25.40
2023-04-22T09:48:10.768Z,25.00
2023-04-22T09:50:44.579Z,25.30
2023-04-22T09:53:17.855Z,25.10
2023-04-22T09:55:49.772Z,25.30
2023-04-22T09:58:21.507Z,25.90
2023-04-22T10:00:54.754Z,25.30
2023-04-22T10:03:24.931Z,25.00
2023-04-22T10:05:53.853Z,25.40
2023-04-22T10:08:24.322Z,25.00
2023-04-22T10:10:53.539Z,25.20
2023-04-22T10:13:22.693Z,25.30
2023-04-22T10:15:54.817Z,25.00
2023-04-22T10:18:28.984Z,25.00
2023-04-22T10:20:59.325Z,25.60
2023-04-22T10:23:34.663Z,25.00
2023-04-22T10:26:06.447Z,25.40
2023-04-22T10:28:35.621Z,25.30
2023-04-22T10:31:08.474Z,25.00
2023-04-22T10:33:39.518Z,24.70
2023-04-22T10:36:12.131Z,24.90
2023-04-22T10:39:03.834Z,25.00
2023-04-22T10:41:35.717Z,24.70
2023-04-22T10:44:08.940Z,25.10
2023-04-22T10:47:02.743Z,24.90
2023-04-22T10:49:33.066Z,25.00
2023-04-22T10:52:04.094Z,25.20
2023-04-22T10:55:02.520Z,25.20
2023-04-22T10:57:43.196Z,24.80
2023-04-22T11:00:45.653Z,25.30
2023-04-22T11:03:29.087Z,26.20
2023-04-22T11:06:18.698Z,25.40
2023-04-22T11:08:49.649Z,25.30
2023-04-22T11:11:20.770Z,25.20
2023-04-22T11:13:51.923Z,26.00
2023-04-22T11:16:24.158Z,24.80
2023-04-22T11:18:53.633Z,24.90
2023-04-22T11:21:23.906Z,24.60
2023-04-22T11:23:54.063Z,24.70
2023-04-22T11:26:37.721Z,24.40
2023-04-22T11:29:06.649Z,24.20
2023-04-22T11:31:37.371Z,25.00
2023-04-22T11:34:06.201Z,24.50
2023-04-22T11:36:35.720Z,24.20
2023-04-22T11:39:14.789Z,25.10
2023-04-22T11:41:45.373Z,25.00
2023-04-22T11:44:16.203Z,25.20
2023-04-22T11:46:45.924Z,24.30
2023-04-22T11:49:16.338Z,25.20
2023-04-22T11:51:55.867Z,24.20
2023-04-22T11:54:35.880Z,23.90
2023-04-22T11:57:11.952Z,23.90
2023-04-22T11:59:41.226Z,24.50
2023-04-22T12:02:11.513Z,24.70
2023-04-22T12:04:41.232Z,24.60
2023-04-22T12:07:10.614Z,24.70
2023-04-22T12:09:41.183Z,25.20
2023-04-22T12:12:11.919Z,26.00
2023-04-22T12:14:40.611Z,24.90
2023-04-22T12:17:12.243Z,25.50
2023-04-22T12:19:41.624Z,26.10
2023-04-22T12:22:10.853Z,25.30
2023-04-22T12:24:46.956Z,25.60
2023-04-22T12:27:17.260Z,26.10
2023-04-22T12:29:54.519Z,26.30
2023-04-22T12:32:25.114Z,25.50
2023-04-22T12:34:54.333Z,26.00
2023-04-22T12:37:23.240Z,25.60
2023-04-22T12:39:51.912Z,25.50
2023-04-22T12:42:22.241Z,25.50
2023-04-22T12:44:51.007Z,25.70
2023-04-22T12:47:20.350Z,25.20
2023-04-22T12:49:49.325Z,26.60
2023-04-22T12:52:18.316Z,25.10
2023-04-22T12:54:47.015Z,25.30
2023-04-22T12:57:16.058Z,25.60
2023-04-22T12:59:47.358Z,25.50
2023-04-22T13:02:16.349Z,25.10
2023-04-22T13:04:45.699Z,25.80
2023-04-22T13:07:14.739Z,25.60
2023-04-22T13:09:43.518Z,25.80
2023-04-22T13:12:12.627Z,25.40
2023-04-22T13:14:41.332Z,25.60
2023-04-22T13:17:11.699Z,25.40
2023-04-22T13:19:41.002Z,25.50
2023-04-22T13:22:10.153Z,25.20
2023-04-22T13:24:38.811Z,25.20
2023-04-22T13:27:07.854Z,25.70
2023-04-22T13:29:36.929Z,25.20
2023-04-22T13:32:07.178Z,25.70
2023-04-22T13:34:37.252Z,25.00
2023-04-22T13:37:06.252Z,24.90
2023-04-22T13:39:34.976Z,24.70
2023-04-22T13:42:04.850Z,25.50
2023-04-22T13:44:33.540Z,24.80
2023-04-22T13:47:03.023Z,25.40
2023-04-22T13:49:31.744Z,25.00
2023-04-22T13:52:02.284Z,25.20
2023-04-22T13:54:31.264Z,24.60
2023-04-22T13:57:00.647Z,25.00
2023-04-22T13:59:29.323Z,25.00
2023-04-22T14:01:58.309Z,25.20
2023-04-22T14:04:27.230Z,24.80
2023-04-22T14:06:56.526Z,25.00
2023-04-22T14:09:26.528Z,24.80
2023-04-22T14:11:55.482Z,25.00
2023-04-22T14:14:24.220Z,25.40
2023-04-22T14:16:53.299Z,25.00
2023-04-22T14:19:24.274Z,24.00
2023-04-22T14:21:53.320Z,24.30
2023-04-22T14:24:23.441Z,24.40
2023-04-22T14:26:53.875Z,24.00
2023-04-22T14:29:23.310Z,23.90
2023-04-22T14:31:52.443Z,23.60
2023-04-22T14:34:21.184Z,24.00
2023-04-22T14:36:50.248Z,24.50
2023-04-22T14:39:18.952Z,24.50
2023-04-22T14:41:48.086Z,24.60
2023-04-22T14:44:18.687Z,23.80
2023-04-22T14:46:47.686Z,24.40
2023-04-22T14:49:16.385Z,24.40
2023-04-22T14:51:45.509Z,24.40
2023-04-22T14:54:14.303Z,24.10
2023-04-22T14:56:43.317Z,24.40
2023-04-22T14:59:12.051Z,24.20
2023-04-22T15:01:43.235Z,24.40
2023-04-22T15:04:13.659Z,25.20
2023-04-22T15:06:43.880Z,24.30
2023-04-22T15:09:13.035Z,24.10
2023-04-22T15:11:42.076Z,23.90
2023-04-22T15:14:10.805Z,24.50
2023-04-22T15:16:41.416Z,24.10
2023-04-22T15:19:10.311Z,24.50
2023-04-22T15:21:39.955Z,23.90
2023-04-22T15:24:08.834Z,23.70
2023-04-22T15:26:39.758Z,23.90
2023-04-22T15:29:08.455Z,23.90
2023-04-22T15:31:37.501Z,24.00
2023-04-22T15:34:07.635Z,24.30
2023-04-22T15:36:36.686Z,25.00
2023-04-22T15:39:06.755Z,25.10
2023-04-22T15:41:35.748Z,24.40
2023-04-22T15:44:07.076Z,24.90
2023-04-22T15:46:38.086Z,25.10
2023-04-22T15:49:08.179Z,24.40
2023-04-22T15:51:37.040Z,23.80
2023-04-22T15:54:05.833Z,24.70
2023-04-22T15:56:34.761Z,24.60
2023-04-22T15:59:03.618Z,24.30
2023-04-22T16:01:32.821Z,25.00
2023-04-22T16:04:01.766Z,24.70
2023-04-22T16:06:32.481Z,24.70
2023-04-22T16:09:01.366Z,25.20
2023-04-22T16:11:30.511Z,24.90
2023-04-22T16:13:59.165Z,24.10
2023-04-22T16:16:28.378Z,23.80
2023-04-22T16:18:57.268Z,25.00
2023-04-22T16:21:26.331Z,23.90
2023-04-22T16:23:56.467Z,23.70
2023-04-22T16:26:25.489Z,24.30
2023-04-22T16:28:54.932Z,24.60
2023-04-22T16:31:23.983Z,25.00
2023-04-22T16:33:53.095Z,24.70
2023-04-22T16:36:22.511Z,24.70
2023-04-22T16:38:51.557Z,25.60
2023-04-22T16:41:21.921Z,26.20
2023-04-22T16:43:50.595Z,25.40
2023-04-22T16:46:19.739Z,26.30
2023-04-22T16:48:48.376Z,26.10
2023-04-22T16:51:17.443Z,26.60
2023-04-22T16:53:46.644Z,27.40
2023-04-22T16:56:15.583Z,26.70
2023-04-22T16:58:45.848Z,27.20
2023-04-22T17:01:14.837Z,27.30
2023-04-22T17:03:43.744Z,26.10
2023-04-22T17:06:13.049Z,28.20
2023-04-22T17:08:41.688Z,27.40
2023-04-22T17:11:10.771Z,28.10
2023-04-22T17:13:39.463Z,28.60
2023-04-22T17:16:11.045Z,28.10
2023-04-22T17:18:39.781Z,29.50
2023-04-22T17:21:08.755Z,28.70
2023-04-22T17:23:38.264Z,28.00
2023-04-22T17:26:07.322Z,27.80
2023-04-22T17:28:36.129Z,28.30
2023-04-22T17:31:05.128Z,28.60
2023-04-22T17:33:36.715Z,29.10
2023-04-22T17:36:06.307Z,29.10
2023-04-22T17:38:34.960Z,28.70
2023-04-22T17:41:04.248Z,29.70
2023-04-22T17:43:33.003Z,29.40
2023-04-22T17:46:02.036Z,30.30
2023-04-22T17:48:30.725Z,29.20
2023-04-22T17:51:05.149Z,28.80
2023-04-22T17:53:34.767Z,29.50
2023-04-22T17:56:03.742Z,30.40
2023-04-22T17:58:32.436Z,31.20
2023-04-22T18:01:01.404Z,30.00
2023-04-22T18:03:30.239Z,29.30
2023-04-22T18:06:01.414Z,28.80
2023-04-22T18:08:30.085Z,28.70
2023-04-22T18:10:59.705Z,28.90
2023-04-22T18:13:28.518Z,28.90
2023-04-22T18:15:57.566Z,29.10
2023-04-22T18:18:26.579Z,29.50
2023-04-22T18:20:56.011Z,29.20
2023-04-22T18:23:26.102Z,29.80
2023-04-22T18:25:55.861Z,30.40
2023-04-22T18:28:24.580Z,30.00
2023-04-22T18:30:54.029Z,30.10
2023-04-22T18:33:22.806Z,30.50
2023-04-22T18:35:51.723Z,30.30
2023-04-22T18:38:20.624Z,31.30
2023-04-22T18:40:50.988Z,32.40
2023-04-22T18:43:19.897Z,31.40
2023-04-22T18:45:48.815Z,31.60
2023-04-22T18:48:18.711Z,31.60
2023-04-22T18:50:47.658Z,31.60
2023-04-22T18:53:16.358Z,31.70
2023-04-22T18:55:45.551Z,32.40
2023-04-22T18:58:15.862Z,32.20
2023-04-22T19:00:44.872Z,33.00
2023-04-22T19:03:13.778Z,33.20
2023-04-22T19:05:43.393Z,33.40
2023-04-22T19:08:12.250Z,33.00
2023-04-22T19:10:41.403Z,33.40
2023-04-22T19:13:22.474Z,33.10
2023-04-22T19:16:00.000Z,32.90
2023-04-22T19:18:28.797Z,33.10
2023-04-22T19:20:57.923Z,33.20
2023-04-22T19:23:26.638Z,32.30
2023-04-22T19:25:55.708Z,32.70
2023-04-22T19:28:24.453Z,32.60
2023-04-22T19:30:53.624Z,33.30
2023-04-22T19:33:23.850Z,32.50
2023-04-22T19:35:52.881Z,33.70
2023-04-22T19:38:23.212Z,32.60
2023-04-22T19:40:52.308Z,32.50
2023-04-22T19:43:21.899Z,33.30
2023-04-22T19:45:50.834Z,33.20
2023-04-22T19:48:20.284Z,33.50
2023-04-22T19:50:51.103Z,33.90
2023-04-22T19:53:21.053Z,34.30
2023-04-22T19:55:50.453Z,33.70
2023-04-22T19:58:19.253Z,33.80
2023-04-22T20:00:49.415Z,33.60
2023-04-22T20:03:19.130Z,33.80
2023-04-22T20:05:52.460Z,33.30
2023-04-22T20:08:27.117Z,33.40
2023-04-22T20:10:57.006Z,34.20
2023-04-22T20:13:26.280Z,34.40
2023-04-22T20:15:55.708Z,34.40
2023-04-22T20:18:26.571Z,34.80
2023-04-22T20:20:58.586Z,34.70
2023-04-22T20:23:29.026Z,34.30
2023-04-22T20:25:58.796Z,34.60
2023-04-22T20:28:44.537Z,34.00
2023-04-22T20:31:14.476Z,34.10
2023-04-22T20:33:43.443Z,34.80
2023-04-22T20:36:16.205Z,35.00
2023-04-22T20:38:48.817Z,34.30
2023-04-22T20:41:20.177Z,35.00
2023-04-22T20:43:49.099Z,35.00
2023-04-22T20:46:19.220Z,35.10
2023-04-22T20:48:48.895Z,35.30
2023-04-22T20:51:19.594Z,35.40
2023-04-22T20:53:48.466Z,34.70
2023-04-22T20:56:17.594Z,34.90
2023-04-22T20:58:46.342Z,35.10
2023-04-22T21:01:16.624Z,35.10
2023-04-22T21:03:52.828Z,35.10
2023-04-22T21:06:25.220Z,35.10
2023-04-22T21:08:56.077Z,35.10
2023-04-22T21:11:26.134Z,35.30
2023-04-22T21:13:55.529Z,35.10
2023-04-22T21:16:29.735Z,35.20
2023-04-22T21:19:01.683Z,35.30
2023-04-22T21:21:34.856Z,35.30
2023-04-22T21:24:05.356Z,35.20
2023-04-22T21:26:36.703Z,35.30
2023-04-22T21:29:06.247Z,35.40
2023-04-22T21:31:35.316Z,35.50
2023-04-22T21:34:06.553Z,35.80
2023-04-22T21:36:36.917Z,36.00
2023-04-22T21:39:05.788Z,36.10
2023-04-22T21:41:34.745Z,36.10
2023-04-22T21:44:03.476Z,36.10
2023-04-22T21:46:32.432Z,36.20
2023-04-22T21:49:01.097Z,36.60
2023-04-22T21:51:30.088Z,36.60
2023-04-22T21:54:00.227Z,36.90
2023-04-22T21:56:31.342Z,36.90
2023-04-22T21:59:00.112Z,36.80
2023-04-22T22:01:29.089Z,36.70
2023-04-22T22:03:58.053Z,36.70
2023-04-22T22:06:27.173Z,36.70
2023-04-22T22:08:55.940Z,36.40
2023-04-22T22:11:30.999Z,36.40
2023-04-22T22:14:00.591Z,36.40
2023-04-22T22:16:29.731Z,37.00
2023-04-22T22:18:58.897Z,36.60
2023-04-22T22:21:27.815Z,36.40
2023-04-22T22:23:57.696Z,36.10
2023-04-22T22:26:29.202Z,35.90
2023-04-22T22:28:57.846Z,36.00
2023-04-22T22:31:26.905Z,36.20
2023-04-22T22:33:55.588Z,36.40
2023-04-22T22:36:25.437Z,36.50
2023-04-22T22:38:54.076Z,36.30
2023-04-22T22:41:23.021Z,36.40
2023-04-22T22:43:53.063Z,36.30
2023-04-22T22:46:22.439Z,36.40
2023-04-22T22:48:51.278Z,36.30
2023-04-22T22:51:21.183Z,36.10
2023-04-22T22:53:49.853Z,36.20
2023-04-22T22:56:21.007Z,36.10
2023-04-22T22:58:49.696Z,36.10
2023-04-22T23:01:20.187Z,36.10
2023-04-22T23:03:49.203Z,36.20
2023-04-22T23:06:18.544Z,36.10
2023-04-22T23:08:47.230Z,36.20
2023-04-22T23:11:16.158Z,36.00
2023-04-22T23:13:44.875Z,36.10
2023-04-22T23:16:14.018Z,36.10
2023-04-22T23:18:45.616Z,36.20
2023-04-22T23:21:16.085Z,36.30
2023-04-22T23:23:45.966Z,36.40
2023-04-22T23:26:15.489Z,36.40
2023-04-22T23:28:44.991Z,36.40
2023-04-22T23:31:19.835Z,36.40
2023-04-22T23:33:51.847Z,36.60
2023-04-22T23:36:23.951Z,36.60
2023-04-22T23:38:52.707Z,36.70
2023-04-22T23:41:21.733Z,36.80
2023-04-22T23:43:50.480Z,36.70
2023-04-22T23:46:19.655Z,36.90
2023-04-22T23:48:49.769Z,37.00
2023-04-22T23:51:18.741Z,36.80
2023-04-22T23:53:47.754Z,36.90
2023-04-22T23:56:21.118Z,36.90
2023-04-22T23:58:50.997Z,36.90
